sensor_id;sensor_type;location;lat;lon;timestamp;pressure;altitude;pressure_sealevel;temperature;humidity
5455;BME280;2750;49.050;9.250;2024-03-08T00:03:36;98763.44;;;6.33;80.52
5455;BME280;2750;49.050;9.250;2024-03-08T00:08:44;98762.78;;;6.26;80.80
5455;BME280;2750;49.050;9.250;2024-03-08T00:13:49;98753.53;;;6.20;80.52
5455;BME280;2750;49.050;9.250;2024-03-08T00:18:53;98751.25;;;6.10;80.42
5455;BME280;2750;49.050;9.250;2024-03-08T00:24:03;98752.09;;;6.10;81.45
5455;BME280;2750;49.050;9.250;2024-03-08T00:29:14;98741.63;;;6.16;80.45
5455;BME280;2750;49.050;9.250;2024-03-08T00:34:29;98738.88;;;5.93;81.48
5455;BME280;2750;49.050;9.250;2024-03-08T00:39:37;98732.31;;;5.82;81.24
5455;BME280;2750;49.050;9.250;2024-03-08T00:44:42;98728.28;;;5.71;81.56
5455;BME280;2750;49.050;9.250;2024-03-08T00:49:50;98721.28;;;5.47;82.83
5455;BME280;2750;49.050;9.250;2024-03-08T00:54:52;98720.53;;;5.42;82.64
5455;BME280;2750;49.050;9.250;2024-03-08T00:59:55;98718.81;;;5.43;83.13
5455;BME280;2750;49.050;9.250;2024-03-08T01:04:59;98700.00;;;5.41;83.26
5455;BME280;2750;49.050;9.250;2024-03-08T01:10:05;98697.63;;;5.33;82.98
5455;BME280;2750;49.050;9.250;2024-03-08T01:15:13;98698.47;;;5.34;83.01
5455;BME280;2750;49.050;9.250;2024-03-08T01:20:32;98681.06;;;5.43;82.60
5455;BME280;2750;49.050;9.250;2024-03-08T01:25:37;98675.13;;;5.41;81.74
5455;BME280;2750;49.050;9.250;2024-03-08T01:30:46;98683.97;;;5.62;82.09
5455;BME280;2750;49.050;9.250;2024-03-08T01:35:57;98663.34;;;5.63;81.51
5455;BME280;2750;49.050;9.250;2024-03-08T01:41:14;98650.84;;;5.51;81.79
5455;BME280;2750;49.050;9.250;2024-03-08T01:46:21;98654.94;;;5.57;81.61
5455;BME280;2750;49.050;9.250;2024-03-08T01:56:52;98650.97;;;5.47;81.71
5455;BME280;2750;49.050;9.250;2024-03-08T02:01:55;98638.81;;;5.52;80.95
5455;BME280;2750;49.050;9.250;2024-03-08T02:07:07;98631.69;;;5.60;81.17
5455;BME280;2750;49.050;9.250;2024-03-08T02:12:12;98631.97;;;5.51;81.62
5455;BME280;2750;49.050;9.250;2024-03-08T02:17:19;98622.53;;;5.51;81.82
5455;BME280;2750;49.050;9.250;2024-03-08T02:22:25;98620.19;;;5.44;81.85
5455;BME280;2750;49.050;9.250;2024-03-08T02:27:30;98617.34;;;5.22;81.97
5455;BME280;2750;49.050;9.250;2024-03-08T02:32:32;98602.69;;;5.25;82.44
5455;BME280;2750;49.050;9.250;2024-03-08T02:37:39;98595.28;;;5.15;82.56
5455;BME280;2750;49.050;9.250;2024-03-08T02:42:41;98595.94;;;5.21;81.80
5455;BME280;2750;49.050;9.250;2024-03-08T02:47:45;98588.78;;;5.33;81.93
5455;BME280;2750;49.050;9.250;2024-03-08T02:52:51;98595.13;;;5.21;82.10
5455;BME280;2750;49.050;9.250;2024-03-08T02:58:13;98588.50;;;5.12;82.37
5455;BME280;2750;49.050;9.250;2024-03-08T03:03:19;98592.41;;;5.25;81.93
5455;BME280;2750;49.050;9.250;2024-03-08T03:08:22;98588.31;;;5.18;81.93
5455;BME280;2750;49.050;9.250;2024-03-08T03:13:28;98578.75;;;5.23;81.77
5455;BME280;2750;49.050;9.250;2024-03-08T03:18:32;98576.09;;;5.26;82.35
5455;BME280;2750;49.050;9.250;2024-03-08T03:23:36;98579.53;;;5.25;82.22
5455;BME280;2750;49.050;9.250;2024-03-08T03:28:43;98575.44;;;5.20;82.12
5455;BME280;2750;49.050;9.250;2024-03-08T03:33:49;98566.69;;;5.25;81.72
5455;BME280;2750;49.050;9.250;2024-03-08T03:38:59;98562.94;;;5.06;82.27
5455;BME280;2750;49.050;9.250;2024-03-08T03:44:11;98557.97;;;5.02;82.35
5455;BME280;2750;49.050;9.250;2024-03-08T03:49:16;98558.31;;;5.19;82.35
5455;BME280;2750;49.050;9.250;2024-03-08T03:54:26;98555.00;;;5.14;82.63
5455;BME280;2750;49.050;9.250;2024-03-08T03:59:31;98544.78;;;5.12;82.18
5455;BME280;2750;49.050;9.250;2024-03-08T04:04:33;98555.94;;;5.11;81.75
5455;BME280;2750;49.050;9.250;2024-03-08T04:09:39;98541.88;;;5.24;82.03
5455;BME280;2750;49.050;9.250;2024-03-08T04:14:43;98549.56;;;4.95;83.16
5455;BME280;2750;49.050;9.250;2024-03-08T04:19:48;98550.41;;;4.96;83.58
5455;BME280;2750;49.050;9.250;2024-03-08T04:24:52;98540.09;;;4.97;83.17
5455;BME280;2750;49.050;9.250;2024-03-08T04:29:56;98537.94;;;5.13;83.03
5455;BME280;2750;49.050;9.250;2024-03-08T04:35:10;98539.66;;;5.12;82.66
5455;BME280;2750;49.050;9.250;2024-03-08T04:40:15;98525.53;;;4.96;83.20
5455;BME280;2750;49.050;9.250;2024-03-08T04:45:17;98516.09;;;4.97;82.84
5455;BME280;2750;49.050;9.250;2024-03-08T04:50:25;98519.31;;;5.05;82.83
5455;BME280;2750;49.050;9.250;2024-03-08T04:55:34;98515.25;;;4.96;82.99
5455;BME280;2750;49.050;9.250;2024-03-08T05:00:40;98513.84;;;4.86;83.00
5455;BME280;2750;49.050;9.250;2024-03-08T05:05:49;98518.25;;;4.81;83.19
5455;BME280;2750;49.050;9.250;2024-03-08T05:10:59;98515.25;;;4.96;83.45
5455;BME280;2750;49.050;9.250;2024-03-08T05:16:05;98512.25;;;4.82;83.30
5455;BME280;2750;49.050;9.250;2024-03-08T05:21:29;98509.13;;;4.71;84.27
5455;BME280;2750;49.050;9.250;2024-03-08T05:26:40;98504.63;;;4.79;83.81
5455;BME280;2750;49.050;9.250;2024-03-08T05:31:53;98502.19;;;4.74;84.09
5455;BME280;2750;49.050;9.250;2024-03-08T05:36:56;98505.59;;;4.75;84.44
5455;BME280;2750;49.050;9.250;2024-03-08T05:42:06;98498.50;;;4.83;84.06
5455;BME280;2750;49.050;9.250;2024-03-08T05:47:25;98491.41;;;4.62;84.09
5455;BME280;2750;49.050;9.250;2024-03-08T05:52:27;98505.84;;;4.66;84.29
5455;BME280;2750;49.050;9.250;2024-03-08T05:57:36;98493.78;;;4.68;83.95
5455;BME280;2750;49.050;9.250;2024-03-08T06:02:41;98491.50;;;4.88;83.73
5455;BME280;2750;49.050;9.250;2024-03-08T06:07:54;98489.81;;;4.87;84.43
5455;BME280;2750;49.050;9.250;2024-03-08T06:13:01;98490.94;;;5.08;83.07
5455;BME280;2750;49.050;9.250;2024-03-08T06:18:13;98483.03;;;5.14;82.75
5455;BME280;2750;49.050;9.250;2024-03-08T06:23:15;98485.00;;;5.34;82.26
5455;BME280;2750;49.050;9.250;2024-03-08T06:28:31;98478.22;;;5.59;81.27
5455;BME280;2750;49.050;9.250;2024-03-08T06:33:43;98481.09;;;5.76;80.75
5455;BME280;2750;49.050;9.250;2024-03-08T06:38:54;98489.50;;;5.55;81.41
5455;BME280;2750;49.050;9.250;2024-03-08T06:44:01;98500.81;;;5.49;81.44
5455;BME280;2750;49.050;9.250;2024-03-08T06:49:26;98494.59;;;5.83;81.65
5455;BME280;2750;49.050;9.250;2024-03-08T06:54:37;98495.72;;;6.02;80.82
5455;BME280;2750;49.050;9.250;2024-03-08T06:59:45;98498.31;;;6.27;80.16
5455;BME280;2750;49.050;9.250;2024-03-08T07:04:50;98489.53;;;6.80;77.71
5455;BME280;2750;49.050;9.250;2024-03-08T07:09:53;98491.88;;;6.86;77.64
5455;BME280;2750;49.050;9.250;2024-03-08T07:15:03;98494.25;;;7.37;76.88
5455;BME280;2750;49.050;9.250;2024-03-08T07:20:17;98485.50;;;7.41;76.18
5455;BME280;2750;49.050;9.250;2024-03-08T07:25:28;98477.47;;;7.49;76.33
5455;BME280;2750;49.050;9.250;2024-03-08T07:30:33;98478.47;;;7.45;76.84
5455;BME280;2750;49.050;9.250;2024-03-08T07:35:56;98463.78;;;7.47;76.02
5455;BME280;2750;49.050;9.250;2024-03-08T07:41:11;98463.88;;;7.44;76.04
5455;BME280;2750;49.050;9.250;2024-03-08T07:46:24;98468.94;;;7.68;75.83
5455;BME280;2750;49.050;9.250;2024-03-08T07:51:29;98468.88;;;7.70;74.99
5455;BME280;2750;49.050;9.250;2024-03-08T07:56:36;98455.44;;;7.82;75.22
5455;BME280;2750;49.050;9.250;2024-03-08T08:01:47;98452.25;;;7.77;75.39
5455;BME280;2750;49.050;9.250;2024-03-08T08:06:56;98445.75;;;7.89;74.74
5455;BME280;2750;49.050;9.250;2024-03-08T08:12:04;98439.06;;;7.83;74.50
5455;BME280;2750;49.050;9.250;2024-03-08T08:17:10;98436.16;;;7.91;75.31
5455;BME280;2750;49.050;9.250;2024-03-08T08:22:12;98444.63;;;8.14;75.21
5455;BME280;2750;49.050;9.250;2024-03-08T08:27:25;98443.59;;;8.18;74.33
5455;BME280;2750;49.050;9.250;2024-03-08T08:32:32;98431.31;;;9.01;71.69
5455;BME280;2750;49.050;9.250;2024-03-08T08:37:35;98431.81;;;8.33;72.96
5455;BME280;2750;49.050;9.250;2024-03-08T08:42:40;98429.06;;;8.56;73.50
5455;BME280;2750;49.050;9.250;2024-03-08T08:47:47;98422.50;;;8.68;72.26
5455;BME280;2750;49.050;9.250;2024-03-08T08:53:08;98410.41;;;9.42;69.83
5455;BME280;2750;49.050;9.250;2024-03-08T08:58:11;98406.44;;;8.61;72.06
5455;BME280;2750;49.050;9.250;2024-03-08T09:03:19;98404.75;;;8.79;72.07
5455;BME280;2750;49.050;9.250;2024-03-08T09:08:29;98404.25;;;8.90;71.18
5455;BME280;2750;49.050;9.250;2024-03-08T09:13:40;98394.56;;;9.48;70.61
5455;BME280;2750;49.050;9.250;2024-03-08T09:18:52;98399.06;;;10.13;68.69
5455;BME280;2750;49.050;9.250;2024-03-08T09:24:13;98382.00;;;10.59;68.44
5455;BME280;2750;49.050;9.250;2024-03-08T09:29:16;98385.72;;;10.38;67.74
5455;BME280;2750;49.050;9.250;2024-03-08T09:34:29;98377.91;;;9.88;68.86
5455;BME280;2750;49.050;9.250;2024-03-08T09:39:59;98373.50;;;10.73;67.99
5455;BME280;2750;49.050;9.250;2024-03-08T09:45:09;98348.47;;;10.87;67.18
5455;BME280;2750;49.050;9.250;2024-03-08T09:50:20;98356.09;;;11.81;65.28
5455;BME280;2750;49.050;9.250;2024-03-08T09:55:37;98359.22;;;11.72;65.09
5455;BME280;2750;49.050;9.250;2024-03-08T10:00:43;98353.19;;;11.42;65.84
5455;BME280;2750;49.050;9.250;2024-03-08T10:05:50;98348.16;;;11.98;64.58
5455;BME280;2750;49.050;9.250;2024-03-08T10:11:11;98337.88;;;12.80;63.44
5455;BME280;2750;49.050;9.250;2024-03-08T10:16:16;98334.00;;;12.59;63.50
5455;BME280;2750;49.050;9.250;2024-03-08T10:21:26;98322.50;;;13.31;62.93
5455;BME280;2750;49.050;9.250;2024-03-08T10:26:40;98317.97;;;13.72;61.50
5455;BME280;2750;49.050;9.250;2024-03-08T10:31:53;98315.81;;;13.27;61.46
5455;BME280;2750;49.050;9.250;2024-03-08T10:37:03;98306.47;;;12.69;62.48
5455;BME280;2750;49.050;9.250;2024-03-08T10:42:14;98300.28;;;12.84;62.50
5455;BME280;2750;49.050;9.250;2024-03-08T10:47:26;98301.88;;;12.60;63.37
5455;BME280;2750;49.050;9.250;2024-03-08T10:52:38;98296.94;;;14.13;61.29
5455;BME280;2750;49.050;9.250;2024-03-08T10:57:42;98289.47;;;14.58;59.05
5455;BME280;2750;49.050;9.250;2024-03-08T11:02:49;98275.41;;;15.08;59.01
5455;BME280;2750;49.050;9.250;2024-03-08T11:07:58;98278.19;;;14.94;60.21
5455;BME280;2750;49.050;9.250;2024-03-08T11:13:39;98264.13;;;15.42;58.51
5455;BME280;2750;49.050;9.250;2024-03-08T11:18:56;98263.81;;;14.52;59.98
5455;BME280;2750;49.050;9.250;2024-03-08T11:24:10;98265.84;;;13.98;59.86
5455;BME280;2750;49.050;9.250;2024-03-08T11:29:41;98253.69;;;13.21;61.10
5455;BME280;2750;49.050;9.250;2024-03-08T11:34:47;98245.41;;;13.41;61.74
5455;BME280;2750;49.050;9.250;2024-03-08T11:39:54;98240.53;;;13.10;62.28
5455;BME280;2750;49.050;9.250;2024-03-08T11:45:08;98226.19;;;13.29;62.33
5455;BME280;2750;49.050;9.250;2024-03-08T11:50:36;98218.06;;;13.84;62.60
5455;BME280;2750;49.050;9.250;2024-03-08T11:55:40;98210.75;;;13.89;63.19
5455;BME280;2750;49.050;9.250;2024-03-08T12:01:03;98188.00;;;13.92;60.61
5455;BME280;2750;49.050;9.250;2024-03-08T12:06:27;98190.66;;;14.28;60.60
5455;BME280;2750;49.050;9.250;2024-03-08T12:11:51;98177.69;;;14.39;59.66
5455;BME280;2750;49.050;9.250;2024-03-08T12:17:04;98168.97;;;14.75;59.86
5455;BME280;2750;49.050;9.250;2024-03-08T12:22:17;98159.13;;;14.78;60.42
5455;BME280;2750;49.050;9.250;2024-03-08T12:27:43;98145.66;;;14.96;59.08
5455;BME280;2750;49.050;9.250;2024-03-08T12:32:57;98135.56;;;15.59;58.09
5455;BME280;2750;49.050;9.250;2024-03-08T12:38:22;98133.91;;;15.58;57.73
5455;BME280;2750;49.050;9.250;2024-03-08T12:43:39;98128.03;;;15.99;57.21
5455;BME280;2750;49.050;9.250;2024-03-08T12:49:05;98112.75;;;16.69;56.54
5455;BME280;2750;49.050;9.250;2024-03-08T12:54:13;98105.53;;;17.03;54.22
5455;BME280;2750;49.050;9.250;2024-03-08T12:59:29;98097.75;;;17.13;53.46
5455;BME280;2750;49.050;9.250;2024-03-08T13:04:33;98083.59;;;17.55;54.07
5455;BME280;2750;49.050;9.250;2024-03-08T13:09:47;98071.06;;;17.08;54.32
5455;BME280;2750;49.050;9.250;2024-03-08T13:15:22;98074.03;;;16.94;54.96
5455;BME280;2750;49.050;9.250;2024-03-08T13:20:48;98061.41;;;18.09;53.27
5455;BME280;2750;49.050;9.250;2024-03-08T13:32:19;98037.91;;;18.55;53.69
5455;BME280;2750;49.050;9.250;2024-03-08T13:38:04;98032.50;;;18.67;51.91
5455;BME280;2750;49.050;9.250;2024-03-08T13:43:30;98020.03;;;18.88;52.48
5455;BME280;2750;49.050;9.250;2024-03-08T13:48:43;98011.06;;;18.81;51.05
5455;BME280;2750;49.050;9.250;2024-03-08T13:53:51;98002.66;;;18.39;52.35
5455;BME280;2750;49.050;9.250;2024-03-08T13:58:53;97988.53;;;18.11;52.68
5455;BME280;2750;49.050;9.250;2024-03-08T14:04:04;97980.53;;;18.22;53.00
5455;BME280;2750;49.050;9.250;2024-03-08T14:09:12;97966.00;;;17.99;53.30
5455;BME280;2750;49.050;9.250;2024-03-08T14:14:17;97961.53;;;17.21;54.65
5455;BME280;2750;49.050;9.250;2024-03-08T14:19:29;97959.41;;;17.45;54.10
5455;BME280;2750;49.050;9.250;2024-03-08T14:24:35;97963.50;;;17.19;53.73
5455;BME280;2750;49.050;9.250;2024-03-08T14:29:47;97950.47;;;17.08;54.67
5455;BME280;2750;49.050;9.250;2024-03-08T14:35:10;97938.38;;;17.76;54.62
5455;BME280;2750;49.050;9.250;2024-03-08T14:40:16;97939.38;;;17.44;53.16
5455;BME280;2750;49.050;9.250;2024-03-08T14:45:20;97937.53;;;17.16;54.24
5455;BME280;2750;49.050;9.250;2024-03-08T14:50:28;97924.41;;;17.94;54.40
5455;BME280;2750;49.050;9.250;2024-03-08T14:55:36;97923.25;;;17.49;53.60
5455;BME280;2750;49.050;9.250;2024-03-08T15:00:39;97919.41;;;17.03;55.03
5455;BME280;2750;49.050;9.250;2024-03-08T15:05:45;97919.19;;;17.16;55.32
5455;BME280;2750;49.050;9.250;2024-03-08T15:11:02;97911.84;;;17.10;55.52
5455;BME280;2750;49.050;9.250;2024-03-08T15:16:35;97901.75;;;17.64;54.90
5455;BME280;2750;49.050;9.250;2024-03-08T15:21:53;97898.03;;;17.77;55.14
5455;BME280;2750;49.050;9.250;2024-03-08T15:32:40;97879.94;;;17.74;54.53
5455;BME280;2750;49.050;9.250;2024-03-08T15:37:56;97866.59;;;17.17;55.02
5455;BME280;2750;49.050;9.250;2024-03-08T15:43:04;97867.91;;;17.81;55.17
5455;BME280;2750;49.050;9.250;2024-03-08T15:48:11;97860.34;;;17.58;55.31
5455;BME280;2750;49.050;9.250;2024-03-08T15:53:24;97856.94;;;17.18;55.65
5455;BME280;2750;49.050;9.250;2024-03-08T15:58:32;97858.50;;;16.81;55.77
5455;BME280;2750;49.050;9.250;2024-03-08T16:03:48;97851.13;;;16.35;57.13
5455;BME280;2750;49.050;9.250;2024-03-08T16:09:03;97847.91;;;16.01;57.80
5455;BME280;2750;49.050;9.250;2024-03-08T16:14:13;97839.47;;;15.97;57.91
5455;BME280;2750;49.050;9.250;2024-03-08T16:19:19;97832.25;;;15.69;57.75
5455;BME280;2750;49.050;9.250;2024-03-08T16:24:30;97833.44;;;15.44;58.17
5455;BME280;2750;49.050;9.250;2024-03-08T16:29:34;97829.81;;;15.56;58.79
5455;BME280;2750;49.050;9.250;2024-03-08T16:34:36;97828.56;;;15.51;58.71
5455;BME280;2750;49.050;9.250;2024-03-08T16:39:42;97833.69;;;15.30;58.43
5455;BME280;2750;49.050;9.250;2024-03-08T16:44:45;97823.25;;;13.98;60.68
5455;BME280;2750;49.050;9.250;2024-03-08T16:49:47;97822.38;;;13.75;61.88
5455;BME280;2750;49.050;9.250;2024-03-08T16:54:49;97821.78;;;13.13;62.57
5455;BME280;2750;49.050;9.250;2024-03-08T16:59:51;97817.19;;;13.04;63.48
5455;BME280;2750;49.050;9.250;2024-03-08T17:04:53;97824.94;;;12.69;64.53
5455;BME280;2750;49.050;9.250;2024-03-08T17:09:56;97820.03;;;12.16;64.12
5455;BME280;2750;49.050;9.250;2024-03-08T17:14:58;97823.75;;;12.12;65.03
5455;BME280;2750;49.050;9.250;2024-03-08T17:19:59;97823.56;;;12.15;65.22
5455;BME280;2750;49.050;9.250;2024-03-08T17:25:03;97816.50;;;12.04;65.38
5455;BME280;2750;49.050;9.250;2024-03-08T17:30:07;97816.00;;;11.99;65.35
5455;BME280;2750;49.050;9.250;2024-03-08T17:35:20;97819.19;;;11.77;65.41
5455;BME280;2750;49.050;9.250;2024-03-08T17:40:24;97813.00;;;11.53;65.88
5455;BME280;2750;49.050;9.250;2024-03-08T17:45:26;97811.81;;;11.32;65.88
5455;BME280;2750;49.050;9.250;2024-03-08T17:50:28;97814.53;;;11.43;65.39
5455;BME280;2750;49.050;9.250;2024-03-08T17:55:31;97813.06;;;11.26;66.67
5455;BME280;2750;49.050;9.250;2024-03-08T18:00:34;97804.88;;;11.06;66.15
5455;BME280;2750;49.050;9.250;2024-03-08T18:05:37;97802.13;;;10.94;66.24
5455;BME280;2750;49.050;9.250;2024-03-08T18:10:43;97799.13;;;11.00;65.42
5455;BME280;2750;49.050;9.250;2024-03-08T18:15:48;97802.13;;;10.94;65.42
5455;BME280;2750;49.050;9.250;2024-03-08T18:20:50;97794.75;;;10.88;64.99
5455;BME280;2750;49.050;9.250;2024-03-08T18:25:52;97784.91;;;10.93;64.63
5455;BME280;2750;49.050;9.250;2024-03-08T18:30:54;97775.06;;;10.72;64.73
5455;BME280;2750;49.050;9.250;2024-03-08T18:35:57;97783.22;;;10.92;64.69
5455;BME280;2750;49.050;9.250;2024-03-08T18:41:00;97767.41;;;10.56;65.18
5455;BME280;2750;49.050;9.250;2024-03-08T18:46:02;97749.06;;;10.59;65.25
5455;BME280;2750;49.050;9.250;2024-03-08T18:51:05;97739.84;;;10.41;64.97
5455;BME280;2750;49.050;9.250;2024-03-08T18:56:08;97753.53;;;10.43;65.12
5455;BME280;2750;49.050;9.250;2024-03-08T19:01:09;97741.88;;;10.36;64.59
5455;BME280;2750;49.050;9.250;2024-03-08T19:06:11;97750.53;;;10.63;64.34
5455;BME280;2750;49.050;9.250;2024-03-08T19:11:14;97771.09;;;10.66;63.51
5455;BME280;2750;49.050;9.250;2024-03-08T19:16:15;97769.25;;;10.54;63.92
5455;BME280;2750;49.050;9.250;2024-03-08T19:21:18;97773.56;;;10.41;64.56
5455;BME280;2750;49.050;9.250;2024-03-08T19:26:22;97767.25;;;10.45;64.28
5455;BME280;2750;49.050;9.250;2024-03-08T19:31:24;97762.94;;;10.17;64.78
5455;BME280;2750;49.050;9.250;2024-03-08T19:36:25;97755.44;;;9.98;64.82
5455;BME280;2750;49.050;9.250;2024-03-08T19:41:29;97767.94;;;9.92;65.58
5455;BME280;2750;49.050;9.250;2024-03-08T19:46:31;97765.63;;;9.87;65.13
5455;BME280;2750;49.050;9.250;2024-03-08T19:51:40;97779.59;;;9.85;64.87
5455;BME280;2750;49.050;9.250;2024-03-08T19:56:44;97778.66;;;9.72;65.10
5455;BME280;2750;49.050;9.250;2024-03-08T20:01:46;97768.22;;;9.73;64.59
5455;BME280;2750;49.050;9.250;2024-03-08T20:06:47;97767.38;;;9.73;65.01
5455;BME280;2750;49.050;9.250;2024-03-08T20:11:50;97777.91;;;9.70;64.92
5455;BME280;2750;49.050;9.250;2024-03-08T20:16:53;97772.81;;;9.82;65.30
5455;BME280;2750;49.050;9.250;2024-03-08T20:21:55;97771.44;;;9.77;65.12
5455;BME280;2750;49.050;9.250;2024-03-08T20:26:58;97768.28;;;9.86;65.14
5455;BME280;2750;49.050;9.250;2024-03-08T20:32:01;97773.72;;;9.67;65.05
5455;BME280;2750;49.050;9.250;2024-03-08T20:37:03;97772.06;;;9.66;65.42
5455;BME280;2750;49.050;9.250;2024-03-08T20:42:08;97753.47;;;9.74;65.77
5455;BME280;2750;49.050;9.250;2024-03-08T20:47:09;97751.44;;;9.50;65.47
5455;BME280;2750;49.050;9.250;2024-03-08T20:52:11;97750.78;;;9.47;65.58
5455;BME280;2750;49.050;9.250;2024-03-08T20:57:14;97758.66;;;9.59;65.69
5455;BME280;2750;49.050;9.250;2024-03-08T21:02:15;97756.06;;;9.59;66.14
5455;BME280;2750;49.050;9.250;2024-03-08T21:07:17;97757.34;;;9.52;66.04
5455;BME280;2750;49.050;9.250;2024-03-08T21:12:20;97756.38;;;9.69;65.63
5455;BME280;2750;49.050;9.250;2024-03-08T21:17:21;97763.84;;;9.74;65.52
5455;BME280;2750;49.050;9.250;2024-03-08T21:22:23;97748.56;;;9.41;66.35
5455;BME280;2750;49.050;9.250;2024-03-08T21:27:26;97736.31;;;9.29;66.77
5455;BME280;2750;49.050;9.250;2024-03-08T21:32:28;97744.25;;;9.11;66.76
5455;BME280;2750;49.050;9.250;2024-03-08T21:37:29;97755.72;;;9.22;66.52
5455;BME280;2750;49.050;9.250;2024-03-08T21:42:33;97758.88;;;9.27;67.12
5455;BME280;2750;49.050;9.250;2024-03-08T21:47:34;97752.50;;;9.32;67.13
5455;BME280;2750;49.050;9.250;2024-03-08T21:52:36;97754.94;;;9.05;67.32
5455;BME280;2750;49.050;9.250;2024-03-08T21:57:39;97757.91;;;9.13;67.67
5455;BME280;2750;49.050;9.250;2024-03-08T22:02:42;97760.38;;;9.31;68.08
5455;BME280;2750;49.050;9.250;2024-03-08T22:07:46;97763.72;;;9.47;67.07
5455;BME280;2750;49.050;9.250;2024-03-08T22:12:50;97757.50;;;9.35;67.39
5455;BME280;2750;49.050;9.250;2024-03-08T22:17:51;97765.00;;;9.40;68.65
5455;BME280;2750;49.050;9.250;2024-03-08T22:22:56;97765.78;;;9.12;69.03
5455;BME280;2750;49.050;9.250;2024-03-08T22:27:59;97758.47;;;9.04;68.68
5455;BME280;2750;49.050;9.250;2024-03-08T22:33:00;97750.63;;;8.90;69.11
5455;BME280;2750;49.050;9.250;2024-03-08T22:38:03;97747.38;;;8.87;69.92
5455;BME280;2750;49.050;9.250;2024-03-08T22:43:08;97752.41;;;8.74;69.88
5455;BME280;2750;49.050;9.250;2024-03-08T22:48:11;97748.03;;;8.90;69.40
5455;BME280;2750;49.050;9.250;2024-03-08T22:53:13;97750.28;;;8.96;69.65
5455;BME280;2750;49.050;9.250;2024-03-08T22:58:16;97746.38;;;8.89;69.75
5455;BME280;2750;49.050;9.250;2024-03-08T23:03:17;97731.78;;;8.88;69.28
5455;BME280;2750;49.050;9.250;2024-03-08T23:08:23;97731.25;;;8.52;70.14
5455;BME280;2750;49.050;9.250;2024-03-08T23:13:27;97730.44;;;8.36;71.41
5455;BME280;2750;49.050;9.250;2024-03-08T23:18:29;97729.19;;;8.43;71.08
5455;BME280;2750;49.050;9.250;2024-03-08T23:23:34;97730.69;;;8.31;71.77
5455;BME280;2750;49.050;9.250;2024-03-08T23:28:38;97726.88;;;8.05;71.61
5455;BME280;2750;49.050;9.250;2024-03-08T23:33:41;97735.31;;;7.93;72.08
5455;BME280;2750;49.050;9.250;2024-03-08T23:38:46;97737.59;;;7.82;73.06
5455;BME280;2750;49.050;9.250;2024-03-08T23:43:51;97741.03;;;7.98;72.88
5455;BME280;2750;49.050;9.250;2024-03-08T23:48:53;97736.81;;;8.13;72.36
5455;BME280;2750;49.050;9.250;2024-03-08T23:53:54;97744.03;;;7.91;72.22
5455;BME280;2750;49.050;9.250;2024-03-08T23:58:57;97747.31;;;8.26;71.83
